Burlington, WA

6:27 PM PST on February 24, 2018 (GMT -0800)
Skagit Regional

Weather History for KBVS - January, 2014

Change the Weather History Date:

Wednesday, January 8, 2014

  Actual Average Record
Temperature  
Mean Temperature 48 °F -  
Max Temperature 51 °F 43 °F 57 °F (1959)
Min Temperature 44 °F 31 °F 8 °F (1973)
Degree Days  
Heating Degree Days 18    
Moisture  
Dew Point 47 °F    
Average Humidity 98    
Maximum Humidity 100    
Minimum Humidity 81    
Precipitation  
Precipitation 0.07 in - - ()
Sea Level Pressure  
Sea Level Pressure 29.82 in    
Wind  
Wind Speed 10 mph (SSE)    
Max Wind Speed 18 mph    
Max Gust Speed 36 mph    
Visibility 10 miles    
Events      
Averages and records for this station are not official NWS values.
T = Trace of Precipitation, MM = Missing Value Source: NWS Daily Summary

Daily Weather History Graph

Daily Weather History Graph

Search for Another Location

Airport or City:

Trip Planner

Search our weather history database for the weather conditions in past years. The results will help you decide how hot, cold, wet, or windy it might be!

Date:

Astronomy

Jan. 08, 2014 Rise Set
Actual Time 8:00 AM PST 4:33 PM PST
Civil Twilight 7:23 AM PST 5:09 PM PST
Nautical Twilight 6:44 AM PST 5:48 PM PST
Astronomical Twilight 6:06 AM PST 6:26 PM PST
Moon 11:44 AM PST (1/8) 12:54 AM PST (1/8)
Length of Visible Light 9h 45m
Length of Day
8h 33m
First Quarter, 57% of the Moon is Illuminated
Jan 8
First Quarter
Jan 15
Full
Jan 23
Last Quarter
Jan 30
New
Feb 6
First Quarter

Hourly Weather History & Observations

Time (PST) Temp. Windchill Dew Point Humidity Pressure Visibility Wind Dir Wind Speed Gust Speed Precip Events Conditions
12:15 AM 46.4 °F 42.4 °F 46.4 °F 100% 30.01 in 10.0 mi ESE 8.1 mph - 0.00 in   Overcast
12:35 AM 46.4 °F 42.4 °F 46.4 °F 100% 30.01 in 10.0 mi ESE 8.1 mph - 0.00 in   Overcast
12:55 AM 46.4 °F 42.9 °F 46.4 °F 100% 30.01 in 10.0 mi SE 6.9 mph - 0.00 in   Overcast
1:15 AM 46.4 °F 42.4 °F 46.4 °F 100% 30.00 in 10.0 mi ESE 8.1 mph - 0.00 in   Overcast
1:35 AM 46.4 °F 43.5 °F 46.4 °F 100% 30.01 in 10.0 mi SE 5.8 mph - 0.00 in   Overcast
1:55 AM 46.4 °F 41.9 °F 46.4 °F 100% 30.00 in 10.0 mi ESE 9.2 mph - 0.00 in   Overcast
2:15 AM 46.4 °F 42.9 °F 46.4 °F 100% 30.00 in 10.0 mi East 6.9 mph - 0.00 in   Overcast
2:35 AM 46.4 °F 44.3 °F 46.4 °F 100% 30.00 in 10.0 mi SE 4.6 mph - 0.00 in   Overcast
2:55 AM 46.4 °F 42.4 °F 46.4 °F 100% 30.00 in 10.0 mi SE 8.1 mph - 0.00 in   Overcast
3:15 AM 46.4 °F 42.4 °F 46.4 °F 100% 29.99 in 7.0 mi ESE 8.1 mph - 0.00 in   Overcast
3:35 AM 46.4 °F 43.5 °F 46.4 °F 100% 29.99 in 7.0 mi SE 5.8 mph - 0.00 in   Overcast
3:55 AM 46.4 °F 42.9 °F 46.4 °F 100% 29.99 in 10.0 mi ESE 6.9 mph - 0.00 in   Overcast
4:15 AM 46.4 °F 43.5 °F 46.4 °F 100% 29.98 in 10.0 mi East 5.8 mph - 0.00 in   Overcast
4:35 AM 44.6 °F 41.4 °F 44.6 °F 100% 29.97 in 10.0 mi East 5.8 mph - 0.00 in   Overcast
4:55 AM 46.4 °F 43.5 °F 46.4 °F 100% 29.96 in 10.0 mi ESE 5.8 mph - 0.00 in   Overcast
5:15 AM 48.2 °F - 48.2 °F 100% 29.96 in 10.0 mi SSE 6.9 mph - 0.00 in   Overcast
5:35 AM 48.2 °F - 48.2 °F 100% 29.95 in 10.0 mi SE 9.2 mph - 0.00 in   Overcast
5:55 AM 48.2 °F - 48.2 °F 100% 29.94 in 10.0 mi SE 9.2 mph - 0.00 in   Overcast
6:15 AM 48.2 °F - 48.2 °F 100% 29.93 in 10.0 mi SE 10.4 mph - 0.00 in   Overcast
6:35 AM 48.2 °F - 48.2 °F 100% 29.93 in 10.0 mi SE 10.4 mph - 0.00 in   Overcast
6:55 AM 48.2 °F - 48.2 °F 100% 29.92 in 10.0 mi SE 10.4 mph - 0.00 in   Overcast
7:15 AM 48.2 °F - 48.2 °F 100% 29.91 in 10.0 mi SE 9.2 mph - 0.00 in   Overcast
7:35 AM 48.2 °F - 48.2 °F 100% 29.90 in 10.0 mi SE 11.5 mph 18.4 mph 0.00 in   Overcast
7:55 AM 48.2 °F - 48.2 °F 100% 29.89 in 10.0 mi SE 11.5 mph - 0.00 in   Overcast
8:15 AM 48.2 °F - 48.2 °F 100% 29.90 in 10.0 mi SE 12.7 mph 18.4 mph 0.00 in   Overcast
8:35 AM 48.2 °F - 48.2 °F 100% 29.90 in 10.0 mi SE 10.4 mph 16.1 mph 0.00 in   Overcast
8:55 AM 48.2 °F - 48.2 °F 100% 29.89 in 10.0 mi SE 13.8 mph 17.3 mph 0.00 in   Overcast
9:15 AM 48.2 °F - 48.2 °F 100% 29.89 in 10.0 mi SE 11.5 mph 18.4 mph 0.00 in   Overcast
9:35 AM 48.2 °F - 48.2 °F 100% 29.88 in 10.0 mi SE 11.5 mph 18.4 mph 0.00 in   Overcast
9:55 AM 48.2 °F - 48.2 °F 100% 29.88 in 10.0 mi SE 11.5 mph 17.3 mph 0.00 in   Overcast
10:15 AM 48.2 °F - 48.2 °F 100% 29.88 in 10.0 mi SSE 11.5 mph 20.7 mph 0.00 in   Overcast
10:35 AM 48.2 °F - 48.2 °F 100% 29.87 in 10.0 mi SE 15.0 mph 18.4 mph 0.00 in   Overcast
10:55 AM 48.2 °F - 48.2 °F 100% 29.86 in 5.0 mi SSE 10.4 mph 19.6 mph 0.00 in   Overcast
11:15 AM 48.2 °F - 48.2 °F 100% 29.84 in 10.0 mi SE 10.4 mph 18.4 mph 0.01 in   Overcast
11:35 AM 48.2 °F - 48.2 °F 100% 29.83 in 5.0 mi SSE 10.4 mph 16.1 mph 0.01 in   Overcast
11:55 AM 48.2 °F - 48.2 °F 100% 29.82 in 10.0 mi SE 9.2 mph 19.6 mph 0.01 in   Overcast
12:15 PM 48.2 °F - 48.2 °F 100% 29.79 in 9.0 mi SSE 12.7 mph 23.0 mph 0.00 in   Overcast
12:35 PM 48.2 °F - 48.2 °F 100% 29.78 in 10.0 mi SE 10.4 mph - 0.00 in   Mostly Cloudy
12:55 PM 48.2 °F - 48.2 °F 100% 29.76 in 10.0 mi SE 13.8 mph 21.9 mph 0.00 in   Overcast
1:15 PM 48.2 °F - 48.2 °F 100% 29.75 in 10.0 mi SSE 17.3 mph 25.3 mph 0.01 in   Overcast
1:35 PM 50.0 °F - 50.0 °F 100% 29.73 in 10.0 mi SE 16.1 mph 23.0 mph 0.01 in   Mostly Cloudy
1:55 PM 50.0 °F - 50.0 °F 100% 29.71 in 10.0 mi SE 18.4 mph 28.8 mph 0.01 in   Mostly Cloudy
2:15 PM 50.0 °F - 50.0 °F 100% 29.70 in 10.0 mi SE 15.0 mph 25.3 mph 0.00 in   Overcast
2:35 PM 51.8 °F - 48.2 °F 88% 29.69 in 10.0 mi SE 18.4 mph 27.6 mph 0.00 in   Mostly Cloudy
2:55 PM 51.8 °F - 50.0 °F 94% 29.68 in 10.0 mi SSE 15.0 mph 27.6 mph 0.00 in   Overcast
3:15 PM 50.0 °F - 50.0 °F 100% 29.67 in 10.0 mi SSE 17.3 mph 27.6 mph 0.00 in   Overcast
3:35 PM 50.0 °F - 50.0 °F 100% 29.67 in 10.0 mi SSE 11.5 mph 23.0 mph 0.00 in   Mostly Cloudy
3:55 PM 50.0 °F - 50.0 °F 100% 29.67 in 10.0 mi SSE 15.0 mph 24.2 mph 0.00 in   Mostly Cloudy
4:15 PM 50.0 °F - 48.2 °F 94% 29.67 in 10.0 mi SSE 12.7 mph 23.0 mph 0.00 in   Mostly Cloudy
4:35 PM 48.2 °F - 48.2 °F 100% 29.67 in 10.0 mi SSE 9.2 mph 21.9 mph 0.00 in   Mostly Cloudy
4:55 PM 48.2 °F - 48.2 °F 100% 29.66 in 10.0 mi SSE 9.2 mph 18.4 mph 0.00 in   Mostly Cloudy
5:15 PM 48.2 °F - 48.2 °F 100% 29.65 in 10.0 mi SSE 11.5 mph 20.7 mph 0.00 in   Overcast
5:35 PM 48.2 °F - 48.2 °F 100% 29.65 in 10.0 mi SSE 15.0 mph 21.9 mph 0.00 in   Overcast
5:55 PM 48.2 °F - 48.2 °F 100% 29.65 in 10.0 mi SSE 15.0 mph 23.0 mph 0.00 in   Mostly Cloudy
6:15 PM 48.2 °F - 48.2 °F 100% 29.64 in 10.0 mi SSE 13.8 mph 24.2 mph 0.00 in   Mostly Cloudy
6:35 PM 48.2 °F - 48.2 °F 100% 29.64 in 10.0 mi South 10.4 mph 20.7 mph 0.00 in   Overcast
6:55 PM 48.2 °F - 48.2 °F 100% 29.66 in 10.0 mi South 11.5 mph 20.7 mph 0.00 in   Overcast
7:15 PM 48.2 °F - 48.2 °F 100% 29.67 in 7.0 mi South 11.5 mph 18.4 mph 0.00 in   Overcast
7:35 PM 46.4 °F 40.4 °F 46.4 °F 100% 29.69 in 5.0 mi SSW 13.8 mph 20.7 mph 0.04 in   Overcast
7:55 PM 46.4 °F 41.1 °F 46.4 °F 100% 29.69 in 8.0 mi SSW 11.5 mph 16.1 mph 0.05 in   Overcast
8:15 PM 46.4 °F 42.9 °F 46.4 °F 100% 29.71 in 10.0 mi SSW 6.9 mph - 0.00 in   Mostly Cloudy
8:35 PM 44.6 °F - 44.6 °F 100% 29.71 in 10.0 mi Calm Calm - 0.00 in   Mostly Cloudy
8:55 PM 46.4 °F 43.5 °F 46.4 °F 100% 29.72 in 10.0 mi WSW 5.8 mph - 0.00 in   Mostly Cloudy
9:15 PM 46.4 °F 43.5 °F 46.4 °F 100% 29.72 in 10.0 mi SW 5.8 mph - 0.00 in   Partly Cloudy
9:35 PM 46.4 °F 41.9 °F 44.6 °F 93% 29.72 in 10.0 mi WSW 9.2 mph - 0.00 in   Partly Cloudy
9:55 PM 46.4 °F 40.4 °F 44.6 °F 93% 29.74 in 10.0 mi SW 13.8 mph 23.0 mph 0.00 in   Scattered Clouds
10:15 PM 46.4 °F 40.1 °F 44.6 °F 93% 29.75 in 10.0 mi SSW 15.0 mph 23.0 mph 0.00 in   Mostly Cloudy
10:35 PM 46.4 °F 40.1 °F 44.6 °F 93% 29.77 in 10.0 mi SW 15.0 mph 23.0 mph 0.00 in   Mostly Cloudy
10:55 PM 46.4 °F 39.8 °F 42.8 °F 87% 29.78 in 10.0 mi SW 16.1 mph 31.1 mph 0.00 in   Overcast
11:15 PM 46.4 °F 39.5 °F 41.0 °F 81% 29.79 in 10.0 mi SW 17.3 mph 35.7 mph 0.00 in   Overcast
11:35 PM 46.4 °F 40.1 °F 41.0 °F 81% 29.81 in 10.0 mi SW 15.0 mph 25.3 mph 0.00 in   Overcast
11:55 PM 46.4 °F 41.1 °F 41.0 °F 81% 29.81 in 10.0 mi SW 11.5 mph 24.2 mph 0.00 in   Overcast